sensor_id;sensor_type;location;lat;lon;timestamp;P1;durP1;ratioP1;P2;durP2;ratioP2
1721;SDS011;858;53.190;8.596;2023-06-10T00:01:49;14.40;;;5.10;;
1721;SDS011;858;53.190;8.596;2023-06-10T00:04:15;11.07;;;5.00;;
1721;SDS011;858;53.190;8.596;2023-06-10T00:06:44;9.20;;;5.30;;
1721;SDS011;858;53.190;8.596;2023-06-10T00:09:14;10.73;;;4.03;;
1721;SDS011;858;53.190;8.596;2023-06-10T00:11:41;11.63;;;5.53;;
1721;SDS011;858;53.190;8.596;2023-06-10T00:14:07;10.30;;;5.03;;
1721;SDS011;858;53.190;8.596;2023-06-10T00:16:35;13.93;;;5.13;;
1721;SDS011;858;53.190;8.596;2023-06-10T00:19:02;8.53;;;5.13;;
1721;SDS011;858;53.190;8.596;2023-06-10T00:21:28;9.40;;;4.73;;
1721;SDS011;858;53.190;8.596;2023-06-10T00:23:56;9.33;;;5.27;;
1721;SDS011;858;53.190;8.596;2023-06-10T00:26:28;9.67;;;6.40;;
1721;SDS011;858;53.190;8.596;2023-06-10T00:28:54;9.73;;;5.17;;
1721;SDS011;858;53.190;8.596;2023-06-10T00:31:21;13.13;;;5.43;;
1721;SDS011;858;53.190;8.596;2023-06-10T00:33:47;11.77;;;5.70;;
1721;SDS011;858;53.190;8.596;2023-06-10T00:36:14;12.80;;;5.93;;
1721;SDS011;858;53.190;8.596;2023-06-10T00:38:40;7.77;;;5.60;;
1721;SDS011;858;53.190;8.596;2023-06-10T00:41:08;13.30;;;6.83;;
1721;SDS011;858;53.190;8.596;2023-06-10T00:43:34;13.03;;;5.67;;
1721;SDS011;858;53.190;8.596;2023-06-10T00:46:01;8.90;;;5.83;;
1721;SDS011;858;53.190;8.596;2023-06-10T00:48:27;10.30;;;6.20;;
1721;SDS011;858;53.190;8.596;2023-06-10T00:50:54;13.77;;;5.90;;
1721;SDS011;858;53.190;8.596;2023-06-10T00:53:21;17.50;;;6.40;;
1721;SDS011;858;53.190;8.596;2023-06-10T00:55:47;8.87;;;5.30;;
1721;SDS011;858;53.190;8.596;2023-06-10T00:58:15;8.97;;;5.40;;
1721;SDS011;858;53.190;8.596;2023-06-10T01:00:41;9.63;;;5.67;;
1721;SDS011;858;53.190;8.596;2023-06-10T01:03:10;8.40;;;5.80;;
1721;SDS011;858;53.190;8.596;2023-06-10T01:05:37;14.13;;;7.00;;
1721;SDS011;858;53.190;8.596;2023-06-10T01:08:05;9.80;;;6.30;;
1721;SDS011;858;53.190;8.596;2023-06-10T01:10:33;10.77;;;6.53;;
1721;SDS011;858;53.190;8.596;2023-06-10T01:13:03;11.10;;;5.93;;
1721;SDS011;858;53.190;8.596;2023-06-10T01:15:31;10.07;;;5.70;;
1721;SDS011;858;53.190;8.596;2023-06-10T01:17:58;8.33;;;6.30;;
1721;SDS011;858;53.190;8.596;2023-06-10T01:20:25;13.77;;;6.77;;
1721;SDS011;858;53.190;8.596;2023-06-10T01:22:53;12.63;;;7.43;;
1721;SDS011;858;53.190;8.596;2023-06-10T01:25:19;13.30;;;6.33;;
1721;SDS011;858;53.190;8.596;2023-06-10T01:27:53;10.80;;;6.07;;
1721;SDS011;858;53.190;8.596;2023-06-10T01:30:22;10.53;;;6.87;;
1721;SDS011;858;53.190;8.596;2023-06-10T01:32:54;13.40;;;6.90;;
1721;SDS011;858;53.190;8.596;2023-06-10T01:35:21;8.20;;;6.60;;
1721;SDS011;858;53.190;8.596;2023-06-10T01:37:50;11.43;;;6.50;;
1721;SDS011;858;53.190;8.596;2023-06-10T01:40:20;19.80;;;7.20;;
1721;SDS011;858;53.190;8.596;2023-06-10T01:42:47;13.90;;;6.70;;
1721;SDS011;858;53.190;8.596;2023-06-10T01:45:13;12.20;;;6.73;;
1721;SDS011;858;53.190;8.596;2023-06-10T01:47:39;12.90;;;7.57;;
1721;SDS011;858;53.190;8.596;2023-06-10T01:50:06;11.57;;;5.83;;
1721;SDS011;858;53.190;8.596;2023-06-10T01:52:33;13.00;;;8.33;;
1721;SDS011;858;53.190;8.596;2023-06-10T01:54:59;15.83;;;7.40;;
1721;SDS011;858;53.190;8.596;2023-06-10T01:57:27;16.33;;;8.10;;
1721;SDS011;858;53.190;8.596;2023-06-10T01:59:53;11.07;;;6.67;;
1721;SDS011;858;53.190;8.596;2023-06-10T02:02:19;13.13;;;8.63;;
1721;SDS011;858;53.190;8.596;2023-06-10T02:04:47;13.33;;;6.83;;
1721;SDS011;858;53.190;8.596;2023-06-10T02:07:13;14.30;;;7.57;;
1721;SDS011;858;53.190;8.596;2023-06-10T02:09:39;19.07;;;7.77;;
1721;SDS011;858;53.190;8.596;2023-06-10T02:12:06;11.27;;;6.63;;
1721;SDS011;858;53.190;8.596;2023-06-10T02:14:34;13.43;;;7.03;;
1721;SDS011;858;53.190;8.596;2023-06-10T02:17:00;10.00;;;6.90;;
1721;SDS011;858;53.190;8.596;2023-06-10T02:19:27;13.07;;;7.33;;
1721;SDS011;858;53.190;8.596;2023-06-10T02:21:53;11.60;;;7.07;;
1721;SDS011;858;53.190;8.596;2023-06-10T02:24:20;12.80;;;8.80;;
1721;SDS011;858;53.190;8.596;2023-06-10T02:26:46;16.30;;;8.50;;
1721;SDS011;858;53.190;8.596;2023-06-10T02:29:13;10.97;;;7.77;;
1721;SDS011;858;53.190;8.596;2023-06-10T02:31:42;12.40;;;6.70;;
1721;SDS011;858;53.190;8.596;2023-06-10T02:34:08;13.30;;;7.70;;
1721;SDS011;858;53.190;8.596;2023-06-10T02:36:35;8.30;;;6.43;;
1721;SDS011;858;53.190;8.596;2023-06-10T02:39:01;15.97;;;8.77;;
1721;SDS011;858;53.190;8.596;2023-06-10T02:41:29;12.17;;;8.80;;
1721;SDS011;858;53.190;8.596;2023-06-10T02:43:55;16.53;;;8.63;;
1721;SDS011;858;53.190;8.596;2023-06-10T02:46:21;12.40;;;8.90;;
1721;SDS011;858;53.190;8.596;2023-06-10T02:48:49;14.60;;;7.90;;
1721;SDS011;858;53.190;8.596;2023-06-10T02:51:16;12.70;;;8.50;;
1721;SDS011;858;53.190;8.596;2023-06-10T02:53:43;19.07;;;9.07;;
1721;SDS011;858;53.190;8.596;2023-06-10T02:56:09;10.90;;;7.50;;
1721;SDS011;858;53.190;8.596;2023-06-10T02:58:37;19.13;;;8.93;;
1721;SDS011;858;53.190;8.596;2023-06-10T03:01:03;12.43;;;7.60;;
1721;SDS011;858;53.190;8.596;2023-06-10T03:03:30;11.70;;;6.83;;
1721;SDS011;858;53.190;8.596;2023-06-10T03:06:00;10.67;;;7.77;;
1721;SDS011;858;53.190;8.596;2023-06-10T03:08:26;18.37;;;10.03;;
1721;SDS011;858;53.190;8.596;2023-06-10T03:10:53;14.37;;;8.70;;
1721;SDS011;858;53.190;8.596;2023-06-10T03:13:19;8.93;;;7.33;;
1721;SDS011;858;53.190;8.596;2023-06-10T03:15:46;15.97;;;8.13;;
1721;SDS011;858;53.190;8.596;2023-06-10T03:18:12;12.63;;;9.10;;
1721;SDS011;858;53.190;8.596;2023-06-10T03:20:38;12.23;;;7.90;;
1721;SDS011;858;53.190;8.596;2023-06-10T03:23:06;22.00;;;9.33;;
1721;SDS011;858;53.190;8.596;2023-06-10T03:25:32;14.17;;;8.83;;
1721;SDS011;858;53.190;8.596;2023-06-10T03:27:59;10.30;;;7.70;;
1721;SDS011;858;53.190;8.596;2023-06-10T03:30:26;13.73;;;7.23;;
1721;SDS011;858;53.190;8.596;2023-06-10T03:32:52;14.90;;;8.60;;
1721;SDS011;858;53.190;8.596;2023-06-10T03:35:19;13.90;;;8.33;;
1721;SDS011;858;53.190;8.596;2023-06-10T03:37:46;7.60;;;6.80;;
1721;SDS011;858;53.190;8.596;2023-06-10T03:40:15;13.77;;;7.43;;
1721;SDS011;858;53.190;8.596;2023-06-10T03:42:41;12.00;;;7.33;;
1721;SDS011;858;53.190;8.596;2023-06-10T03:45:09;8.90;;;6.90;;
1721;SDS011;858;53.190;8.596;2023-06-10T03:47:36;12.77;;;7.83;;
1721;SDS011;858;53.190;8.596;2023-06-10T03:50:03;13.50;;;8.50;;
1721;SDS011;858;53.190;8.596;2023-06-10T03:52:29;12.53;;;6.93;;
1721;SDS011;858;53.190;8.596;2023-06-10T03:54:56;13.67;;;9.80;;
1721;SDS011;858;53.190;8.596;2023-06-10T03:57:24;10.43;;;7.97;;
1721;SDS011;858;53.190;8.596;2023-06-10T03:59:50;13.60;;;8.20;;
1721;SDS011;858;53.190;8.596;2023-06-10T04:02:18;30.33;;;9.20;;
1721;SDS011;858;53.190;8.596;2023-06-10T04:04:44;10.40;;;8.00;;
1721;SDS011;858;53.190;8.596;2023-06-10T04:07:12;12.97;;;7.63;;
1721;SDS011;858;53.190;8.596;2023-06-10T04:09:39;18.63;;;7.67;;
1721;SDS011;858;53.190;8.596;2023-06-10T04:12:06;15.67;;;8.70;;
1721;SDS011;858;53.190;8.596;2023-06-10T04:14:35;17.30;;;8.37;;
1721;SDS011;858;53.190;8.596;2023-06-10T04:17:02;11.03;;;7.33;;
1721;SDS011;858;53.190;8.596;2023-06-10T04:19:31;11.10;;;6.53;;
1721;SDS011;858;53.190;8.596;2023-06-10T04:21:57;11.07;;;7.30;;
1721;SDS011;858;53.190;8.596;2023-06-10T04:24:25;14.23;;;8.27;;
1721;SDS011;858;53.190;8.596;2023-06-10T04:26:51;11.00;;;6.17;;
1721;SDS011;858;53.190;8.596;2023-06-10T04:29:17;13.50;;;7.13;;
1721;SDS011;858;53.190;8.596;2023-06-10T04:31:45;10.80;;;6.70;;
1721;SDS011;858;53.190;8.596;2023-06-10T04:34:12;11.07;;;6.50;;
1721;SDS011;858;53.190;8.596;2023-06-10T04:36:38;9.20;;;6.60;;
1721;SDS011;858;53.190;8.596;2023-06-10T04:39:04;12.70;;;7.30;;
1721;SDS011;858;53.190;8.596;2023-06-10T04:41:31;13.07;;;7.57;;
1721;SDS011;858;53.190;8.596;2023-06-10T04:43:57;13.37;;;6.60;;
1721;SDS011;858;53.190;8.596;2023-06-10T04:46:24;12.73;;;6.47;;
1721;SDS011;858;53.190;8.596;2023-06-10T04:48:52;13.87;;;8.50;;
1721;SDS011;858;53.190;8.596;2023-06-10T04:51:19;13.93;;;9.30;;
1721;SDS011;858;53.190;8.596;2023-06-10T04:53:46;15.80;;;10.13;;
1721;SDS011;858;53.190;8.596;2023-06-10T04:56:12;14.60;;;9.20;;
1721;SDS011;858;53.190;8.596;2023-06-10T04:58:40;14.23;;;10.53;;
1721;SDS011;858;53.190;8.596;2023-06-10T05:01:06;20.43;;;10.50;;
1721;SDS011;858;53.190;8.596;2023-06-10T05:03:32;25.17;;;13.90;;
1721;SDS011;858;53.190;8.596;2023-06-10T05:06:00;15.03;;;11.20;;
1721;SDS011;858;53.190;8.596;2023-06-10T05:08:27;14.33;;;12.50;;
1721;SDS011;858;53.190;8.596;2023-06-10T05:10:53;17.03;;;13.67;;
1721;SDS011;858;53.190;8.596;2023-06-10T05:13:19;17.73;;;12.00;;
1721;SDS011;858;53.190;8.596;2023-06-10T05:15:46;17.53;;;11.77;;
1721;SDS011;858;53.190;8.596;2023-06-10T05:18:12;14.47;;;10.90;;
1721;SDS011;858;53.190;8.596;2023-06-10T05:20:38;15.03;;;11.13;;
1721;SDS011;858;53.190;8.596;2023-06-10T05:23:06;14.63;;;10.90;;
1721;SDS011;858;53.190;8.596;2023-06-10T05:25:32;16.77;;;11.73;;
1721;SDS011;858;53.190;8.596;2023-06-10T05:28:00;13.83;;;9.80;;
1721;SDS011;858;53.190;8.596;2023-06-10T05:30:26;12.73;;;10.67;;
1721;SDS011;858;53.190;8.596;2023-06-10T05:32:52;17.13;;;11.33;;
1721;SDS011;858;53.190;8.596;2023-06-10T05:35:20;15.50;;;10.20;;
1721;SDS011;858;53.190;8.596;2023-06-10T05:37:48;19.43;;;9.43;;
1721;SDS011;858;53.190;8.596;2023-06-10T05:40:16;11.67;;;9.07;;
1721;SDS011;858;53.190;8.596;2023-06-10T05:42:42;12.20;;;8.50;;
1721;SDS011;858;53.190;8.596;2023-06-10T05:45:09;13.70;;;9.27;;
1721;SDS011;858;53.190;8.596;2023-06-10T05:47:35;14.83;;;8.50;;
1721;SDS011;858;53.190;8.596;2023-06-10T05:50:02;15.87;;;8.47;;
1721;SDS011;858;53.190;8.596;2023-06-10T05:52:32;16.40;;;8.60;;
1721;SDS011;858;53.190;8.596;2023-06-10T05:54:58;10.47;;;7.73;;
1721;SDS011;858;53.190;8.596;2023-06-10T05:57:26;9.07;;;7.87;;
1721;SDS011;858;53.190;8.596;2023-06-10T05:59:52;11.60;;;7.60;;
1721;SDS011;858;53.190;8.596;2023-06-10T06:02:20;13.07;;;7.40;;
1721;SDS011;858;53.190;8.596;2023-06-10T06:04:47;8.87;;;7.87;;
1721;SDS011;858;53.190;8.596;2023-06-10T06:07:13;10.20;;;8.07;;
1721;SDS011;858;53.190;8.596;2023-06-10T06:09:39;11.70;;;7.50;;
1721;SDS011;858;53.190;8.596;2023-06-10T06:12:06;13.97;;;7.50;;
1721;SDS011;858;53.190;8.596;2023-06-10T06:14:36;11.40;;;7.33;;
1721;SDS011;858;53.190;8.596;2023-06-10T06:17:03;12.53;;;7.60;;
1721;SDS011;858;53.190;8.596;2023-06-10T06:19:29;8.57;;;7.00;;
1721;SDS011;858;53.190;8.596;2023-06-10T06:21:56;11.93;;;7.37;;
1721;SDS011;858;53.190;8.596;2023-06-10T06:24:22;12.20;;;7.73;;
1721;SDS011;858;53.190;8.596;2023-06-10T06:26:48;8.73;;;6.07;;
1721;SDS011;858;53.190;8.596;2023-06-10T06:29:15;10.93;;;6.97;;
1721;SDS011;858;53.190;8.596;2023-06-10T06:31:43;11.67;;;7.10;;
1721;SDS011;858;53.190;8.596;2023-06-10T06:34:09;12.90;;;7.23;;
1721;SDS011;858;53.190;8.596;2023-06-10T06:36:35;13.23;;;6.80;;
1721;SDS011;858;53.190;8.596;2023-06-10T06:39:02;10.20;;;6.80;;
1721;SDS011;858;53.190;8.596;2023-06-10T06:41:28;7.90;;;6.53;;
1721;SDS011;858;53.190;8.596;2023-06-10T06:43:55;10.87;;;6.63;;
1721;SDS011;858;53.190;8.596;2023-06-10T06:46:21;12.60;;;6.10;;
1721;SDS011;858;53.190;8.596;2023-06-10T06:48:49;6.97;;;5.73;;
1721;SDS011;858;53.190;8.596;2023-06-10T06:51:15;14.87;;;7.20;;
1721;SDS011;858;53.190;8.596;2023-06-10T06:53:41;9.40;;;6.70;;
1721;SDS011;858;53.190;8.596;2023-06-10T06:56:10;8.20;;;6.07;;
1721;SDS011;858;53.190;8.596;2023-06-10T06:58:37;10.43;;;6.30;;
1721;SDS011;858;53.190;8.596;2023-06-10T07:01:03;13.00;;;6.30;;
1721;SDS011;858;53.190;8.596;2023-06-10T07:03:30;9.60;;;6.30;;
1721;SDS011;858;53.190;8.596;2023-06-10T07:05:59;8.83;;;6.67;;
1721;SDS011;858;53.190;8.596;2023-06-10T07:08:25;10.53;;;6.70;;
1721;SDS011;858;53.190;8.596;2023-06-10T07:10:52;8.20;;;6.33;;
1721;SDS011;858;53.190;8.596;2023-06-10T07:13:19;13.30;;;5.80;;
1721;SDS011;858;53.190;8.596;2023-06-10T07:15:45;6.90;;;5.90;;
1721;SDS011;858;53.190;8.596;2023-06-10T07:18:12;8.60;;;6.60;;
1721;SDS011;858;53.190;8.596;2023-06-10T07:20:38;9.87;;;6.37;;
1721;SDS011;858;53.190;8.596;2023-06-10T07:23:06;15.33;;;6.90;;
1721;SDS011;858;53.190;8.596;2023-06-10T07:25:32;11.20;;;5.87;;
1721;SDS011;858;53.190;8.596;2023-06-10T07:27:59;10.33;;;6.00;;
1721;SDS011;858;53.190;8.596;2023-06-10T07:30:25;6.77;;;6.00;;
1721;SDS011;858;53.190;8.596;2023-06-10T07:32:51;8.83;;;6.97;;
1721;SDS011;858;53.190;8.596;2023-06-10T07:35:18;11.80;;;6.93;;
1721;SDS011;858;53.190;8.596;2023-06-10T07:37:44;6.70;;;5.60;;
1721;SDS011;858;53.190;8.596;2023-06-10T07:40:12;14.07;;;6.83;;
1721;SDS011;858;53.190;8.596;2023-06-10T07:42:39;9.00;;;5.93;;
1721;SDS011;858;53.190;8.596;2023-06-10T07:45:05;13.77;;;7.03;;
1721;SDS011;858;53.190;8.596;2023-06-10T07:47:32;6.73;;;5.10;;
1721;SDS011;858;53.190;8.596;2023-06-10T07:50:00;11.20;;;5.83;;
1721;SDS011;858;53.190;8.596;2023-06-10T07:52:26;8.53;;;6.63;;
1721;SDS011;858;53.190;8.596;2023-06-10T07:54:53;13.43;;;6.80;;
1721;SDS011;858;53.190;8.596;2023-06-10T07:57:21;7.47;;;5.77;;
1721;SDS011;858;53.190;8.596;2023-06-10T07:59:47;12.13;;;6.77;;
1721;SDS011;858;53.190;8.596;2023-06-10T08:02:14;6.77;;;5.73;;
1721;SDS011;858;53.190;8.596;2023-06-10T08:04:40;8.80;;;5.50;;
1721;SDS011;858;53.190;8.596;2023-06-10T08:07:06;10.40;;;5.70;;
1721;SDS011;858;53.190;8.596;2023-06-10T08:09:33;10.53;;;7.00;;
1721;SDS011;858;53.190;8.596;2023-06-10T08:11:59;10.60;;;6.87;;
1721;SDS011;858;53.190;8.596;2023-06-10T08:14:27;9.47;;;5.67;;
1721;SDS011;858;53.190;8.596;2023-06-10T08:16:54;12.13;;;7.50;;
1721;SDS011;858;53.190;8.596;2023-06-10T08:19:20;13.17;;;5.97;;
1721;SDS011;858;53.190;8.596;2023-06-10T08:21:46;7.90;;;5.50;;
1721;SDS011;858;53.190;8.596;2023-06-10T08:24:13;7.37;;;6.07;;
1721;SDS011;858;53.190;8.596;2023-06-10T08:26:41;14.90;;;7.40;;
1721;SDS011;858;53.190;8.596;2023-06-10T08:29:07;8.97;;;6.60;;
1721;SDS011;858;53.190;8.596;2023-06-10T08:31:35;16.77;;;6.93;;
1721;SDS011;858;53.190;8.596;2023-06-10T08:34:01;8.43;;;5.67;;
1721;SDS011;858;53.190;8.596;2023-06-10T08:36:28;10.53;;;6.87;;
1721;SDS011;858;53.190;8.596;2023-06-10T08:38:54;8.10;;;6.10;;
1721;SDS011;858;53.190;8.596;2023-06-10T08:41:21;10.03;;;7.20;;
1721;SDS011;858;53.190;8.596;2023-06-10T08:43:53;11.20;;;7.30;;
1721;SDS011;858;53.190;8.596;2023-06-10T08:46:20;12.07;;;7.93;;
1721;SDS011;858;53.190;8.596;2023-06-10T08:48:48;9.43;;;8.03;;
1721;SDS011;858;53.190;8.596;2023-06-10T08:51:17;9.73;;;8.60;;
1721;SDS011;858;53.190;8.596;2023-06-10T08:53:45;10.80;;;8.33;;
1721;SDS011;858;53.190;8.596;2023-06-10T08:56:14;8.37;;;7.40;;
1721;SDS011;858;53.190;8.596;2023-06-10T08:58:42;8.33;;;7.63;;
1721;SDS011;858;53.190;8.596;2023-06-10T09:01:09;15.47;;;10.17;;
1721;SDS011;858;53.190;8.596;2023-06-10T09:03:37;10.03;;;7.83;;
1721;SDS011;858;53.190;8.596;2023-06-10T09:06:05;14.57;;;8.67;;
1721;SDS011;858;53.190;8.596;2023-06-10T09:08:33;13.67;;;7.80;;
1721;SDS011;858;53.190;8.596;2023-06-10T09:10:59;15.77;;;9.03;;
1721;SDS011;858;53.190;8.596;2023-06-10T09:13:26;10.50;;;8.23;;
1721;SDS011;858;53.190;8.596;2023-06-10T09:15:52;9.87;;;7.60;;
1721;SDS011;858;53.190;8.596;2023-06-10T09:18:21;10.50;;;7.43;;
1721;SDS011;858;53.190;8.596;2023-06-10T09:20:49;9.47;;;7.40;;
1721;SDS011;858;53.190;8.596;2023-06-10T09:23:16;11.17;;;7.43;;
1721;SDS011;858;53.190;8.596;2023-06-10T09:25:43;8.07;;;7.27;;
1721;SDS011;858;53.190;8.596;2023-06-10T09:28:12;9.60;;;7.27;;
1721;SDS011;858;53.190;8.596;2023-06-10T09:30:39;14.20;;;7.90;;
1721;SDS011;858;53.190;8.596;2023-06-10T09:33:09;12.60;;;7.57;;
1721;SDS011;858;53.190;8.596;2023-06-10T09:35:35;10.57;;;7.10;;
1721;SDS011;858;53.190;8.596;2023-06-10T09:38:02;11.20;;;7.20;;
1721;SDS011;858;53.190;8.596;2023-06-10T09:40:31;10.73;;;5.80;;
1721;SDS011;858;53.190;8.596;2023-06-10T09:42:58;9.00;;;6.77;;
1721;SDS011;858;53.190;8.596;2023-06-10T09:45:28;10.90;;;6.20;;
1721;SDS011;858;53.190;8.596;2023-06-10T09:47:55;10.53;;;6.47;;
1721;SDS011;858;53.190;8.596;2023-06-10T09:50:21;11.80;;;7.67;;
1721;SDS011;858;53.190;8.596;2023-06-10T09:52:49;6.63;;;6.03;;
1721;SDS011;858;53.190;8.596;2023-06-10T09:55:16;7.50;;;6.40;;
1721;SDS011;858;53.190;8.596;2023-06-10T09:57:44;7.97;;;6.10;;
1721;SDS011;858;53.190;8.596;2023-06-10T10:00:13;8.97;;;5.90;;
1721;SDS011;858;53.190;8.596;2023-06-10T10:02:44;9.60;;;6.57;;
1721;SDS011;858;53.190;8.596;2023-06-10T10:05:12;10.00;;;5.67;;
1721;SDS011;858;53.190;8.596;2023-06-10T10:07:38;8.10;;;5.73;;
1721;SDS011;858;53.190;8.596;2023-06-10T10:10:05;10.40;;;5.53;;
1721;SDS011;858;53.190;8.596;2023-06-10T10:12:33;10.57;;;5.40;;
1721;SDS011;858;53.190;8.596;2023-06-10T10:15:01;8.20;;;6.23;;
1721;SDS011;858;53.190;8.596;2023-06-10T10:17:28;6.20;;;4.97;;
1721;SDS011;858;53.190;8.596;2023-06-10T10:19:57;11.53;;;5.60;;
1721;SDS011;858;53.190;8.596;2023-06-10T10:22:25;7.57;;;5.57;;
1721;SDS011;858;53.190;8.596;2023-06-10T10:24:52;15.33;;;6.20;;
1721;SDS011;858;53.190;8.596;2023-06-10T10:27:20;8.00;;;5.10;;
1721;SDS011;858;53.190;8.596;2023-06-10T10:29:47;7.53;;;5.27;;
1721;SDS011;858;53.190;8.596;2023-06-10T10:32:15;9.53;;;5.03;;
1721;SDS011;858;53.190;8.596;2023-06-10T10:34:43;5.43;;;4.23;;
1721;SDS011;858;53.190;8.596;2023-06-10T10:37:14;7.70;;;5.00;;
1721;SDS011;858;53.190;8.596;2023-06-10T10:39:41;8.90;;;4.63;;
1721;SDS011;858;53.190;8.596;2023-06-10T10:42:07;8.70;;;4.13;;
1721;SDS011;858;53.190;8.596;2023-06-10T10:44:35;6.33;;;3.97;;
1721;SDS011;858;53.190;8.596;2023-06-10T10:47:02;7.73;;;4.40;;
1721;SDS011;858;53.190;8.596;2023-06-10T10:49:30;5.17;;;4.30;;
1721;SDS011;858;53.190;8.596;2023-06-10T10:51:57;8.13;;;3.67;;
1721;SDS011;858;53.190;8.596;2023-06-10T10:54:30;10.83;;;4.53;;
1721;SDS011;858;53.190;8.596;2023-06-10T10:57:09;6.40;;;3.73;;
1721;SDS011;858;53.190;8.596;2023-06-10T10:59:42;7.50;;;4.13;;
1721;SDS011;858;53.190;8.596;2023-06-10T11:02:09;7.07;;;4.57;;
1721;SDS011;858;53.190;8.596;2023-06-10T11:04:37;9.30;;;4.47;;
1721;SDS011;858;53.190;8.596;2023-06-10T11:07:05;9.63;;;4.00;;
1721;SDS011;858;53.190;8.596;2023-06-10T11:09:31;9.70;;;4.40;;
1721;SDS011;858;53.190;8.596;2023-06-10T11:11:58;8.37;;;3.90;;
1721;SDS011;858;53.190;8.596;2023-06-10T11:14:28;16.77;;;4.80;;
1721;SDS011;858;53.190;8.596;2023-06-10T11:16:56;6.97;;;3.50;;
1721;SDS011;858;53.190;8.596;2023-06-10T11:19:32;7.70;;;3.20;;
1721;SDS011;858;53.190;8.596;2023-06-10T11:22:01;9.43;;;3.70;;
1721;SDS011;858;53.190;8.596;2023-06-10T11:24:28;6.33;;;3.60;;
1721;SDS011;858;53.190;8.596;2023-06-10T11:26:54;5.60;;;3.97;;
1721;SDS011;858;53.190;8.596;2023-06-10T11:29:20;7.13;;;3.77;;
1721;SDS011;858;53.190;8.596;2023-06-10T11:31:50;8.27;;;4.10;;
1721;SDS011;858;53.190;8.596;2023-06-10T11:34:23;7.17;;;3.63;;
1721;SDS011;858;53.190;8.596;2023-06-10T11:36:52;9.00;;;4.60;;
1721;SDS011;858;53.190;8.596;2023-06-10T11:39:20;7.73;;;3.80;;
1721;SDS011;858;53.190;8.596;2023-06-10T11:41:48;5.43;;;3.63;;
1721;SDS011;858;53.190;8.596;2023-06-10T11:44:15;6.43;;;3.50;;
1721;SDS011;858;53.190;8.596;2023-06-10T11:46:41;3.50;;;2.97;;
1721;SDS011;858;53.190;8.596;2023-06-10T11:49:08;4.50;;;3.57;;
1721;SDS011;858;53.190;8.596;2023-06-10T11:51:35;8.80;;;3.37;;
1721;SDS011;858;53.190;8.596;2023-06-10T11:54:02;4.80;;;3.70;;
1721;SDS011;858;53.190;8.596;2023-06-10T11:56:30;4.80;;;3.10;;
1721;SDS011;858;53.190;8.596;2023-06-10T11:58:57;5.40;;;3.20;;
1721;SDS011;858;53.190;8.596;2023-06-10T12:01:24;4.23;;;2.90;;
1721;SDS011;858;53.190;8.596;2023-06-10T12:03:57;4.30;;;2.77;;
1721;SDS011;858;53.190;8.596;2023-06-10T12:06:24;5.50;;;2.60;;
1721;SDS011;858;53.190;8.596;2023-06-10T12:08:50;4.47;;;2.83;;
1721;SDS011;858;53.190;8.596;2023-06-10T12:11:16;4.83;;;3.63;;
1721;SDS011;858;53.190;8.596;2023-06-10T12:13:48;5.80;;;2.93;;
1721;SDS011;858;53.190;8.596;2023-06-10T12:16:15;4.83;;;3.20;;
1721;SDS011;858;53.190;8.596;2023-06-10T12:18:43;5.67;;;2.80;;
1721;SDS011;858;53.190;8.596;2023-06-10T12:21:16;5.60;;;3.17;;
1721;SDS011;858;53.190;8.596;2023-06-10T12:26:33;4.47;;;2.60;;
1721;SDS011;858;53.190;8.596;2023-06-10T12:29:02;4.13;;;3.17;;
1721;SDS011;858;53.190;8.596;2023-06-10T12:31:51;6.53;;;3.30;;
1721;SDS011;858;53.190;8.596;2023-06-10T12:34:18;5.20;;;2.93;;
1721;SDS011;858;53.190;8.596;2023-06-10T12:36:47;3.97;;;2.60;;
1721;SDS011;858;53.190;8.596;2023-06-10T12:39:13;3.63;;;2.43;;
1721;SDS011;858;53.190;8.596;2023-06-10T12:41:40;7.20;;;3.87;;
1721;SDS011;858;53.190;8.596;2023-06-10T12:44:07;4.33;;;3.17;;
1721;SDS011;858;53.190;8.596;2023-06-10T12:46:36;6.63;;;2.73;;
1721;SDS011;858;53.190;8.596;2023-06-10T12:49:02;3.67;;;3.07;;
1721;SDS011;858;53.190;8.596;2023-06-10T12:51:28;2.90;;;2.60;;
1721;SDS011;858;53.190;8.596;2023-06-10T12:53:55;6.70;;;3.30;;
1721;SDS011;858;53.190;8.596;2023-06-10T12:56:21;6.83;;;3.03;;
1721;SDS011;858;53.190;8.596;2023-06-10T12:58:48;3.73;;;2.63;;
1721;SDS011;858;53.190;8.596;2023-06-10T13:01:16;3.90;;;3.17;;
1721;SDS011;858;53.190;8.596;2023-06-10T13:03:43;4.43;;;3.00;;
1721;SDS011;858;53.190;8.596;2023-06-10T13:06:09;5.80;;;3.20;;
1721;SDS011;858;53.190;8.596;2023-06-10T13:08:35;5.37;;;3.27;;
1721;SDS011;858;53.190;8.596;2023-06-10T13:11:02;5.07;;;3.10;;
1721;SDS011;858;53.190;8.596;2023-06-10T13:13:28;3.03;;;2.73;;
1721;SDS011;858;53.190;8.596;2023-06-10T13:15:54;4.53;;;2.87;;
1721;SDS011;858;53.190;8.596;2023-06-10T13:18:22;5.70;;;3.73;;
1721;SDS011;858;53.190;8.596;2023-06-10T13:20:50;3.80;;;3.10;;
1721;SDS011;858;53.190;8.596;2023-06-10T13:23:17;5.50;;;3.00;;
1721;SDS011;858;53.190;8.596;2023-06-10T13:25:43;4.90;;;3.33;;
1721;SDS011;858;53.190;8.596;2023-06-10T13:28:10;3.90;;;3.30;;
1721;SDS011;858;53.190;8.596;2023-06-10T13:30:37;6.00;;;3.70;;
1721;SDS011;858;53.190;8.596;2023-06-10T13:33:05;5.57;;;3.00;;
1721;SDS011;858;53.190;8.596;2023-06-10T13:35:33;3.90;;;3.00;;
1721;SDS011;858;53.190;8.596;2023-06-10T13:38:01;5.90;;;4.20;;
1721;SDS011;858;53.190;8.596;2023-06-10T13:40:27;6.60;;;3.00;;
1721;SDS011;858;53.190;8.596;2023-06-10T13:42:53;6.03;;;3.77;;
1721;SDS011;858;53.190;8.596;2023-06-10T13:45:20;7.47;;;3.60;;
1721;SDS011;858;53.190;8.596;2023-06-10T13:47:46;3.70;;;3.13;;
1721;SDS011;858;53.190;8.596;2023-06-10T13:50:12;7.53;;;4.00;;
1721;SDS011;858;53.190;8.596;2023-06-10T13:52:40;3.90;;;3.00;;
1721;SDS011;858;53.190;8.596;2023-06-10T13:55:07;5.03;;;2.93;;
1721;SDS011;858;53.190;8.596;2023-06-10T13:57:33;4.97;;;3.83;;
1721;SDS011;858;53.190;8.596;2023-06-10T14:00:00;5.90;;;3.63;;
1721;SDS011;858;53.190;8.596;2023-06-10T14:02:27;18.00;;;3.93;;
1721;SDS011;858;53.190;8.596;2023-06-10T14:04:53;4.37;;;3.47;;
1721;SDS011;858;53.190;8.596;2023-06-10T14:07:20;5.20;;;3.87;;
1721;SDS011;858;53.190;8.596;2023-06-10T14:09:48;8.00;;;5.00;;
1721;SDS011;858;53.190;8.596;2023-06-10T14:12:14;5.90;;;3.50;;
1721;SDS011;858;53.190;8.596;2023-06-10T14:14:41;7.43;;;4.20;;
1721;SDS011;858;53.190;8.596;2023-06-10T14:17:07;5.23;;;4.00;;
1721;SDS011;858;53.190;8.596;2023-06-10T14:19:33;5.53;;;4.40;;
1721;SDS011;858;53.190;8.596;2023-06-10T14:22:00;5.90;;;4.10;;
1721;SDS011;858;53.190;8.596;2023-06-10T14:24:26;5.00;;;4.20;;
1721;SDS011;858;53.190;8.596;2023-06-10T14:26:54;6.47;;;4.60;;
1721;SDS011;858;53.190;8.596;2023-06-10T14:29:23;5.60;;;3.87;;
1721;SDS011;858;53.190;8.596;2023-06-10T14:31:52;8.00;;;4.43;;
1721;SDS011;858;53.190;8.596;2023-06-10T14:34:18;7.03;;;4.33;;
1721;SDS011;858;53.190;8.596;2023-06-10T14:36:44;5.07;;;3.97;;
1721;SDS011;858;53.190;8.596;2023-06-10T14:39:11;11.80;;;4.13;;
1721;SDS011;858;53.190;8.596;2023-06-10T14:41:37;4.53;;;4.13;;
1721;SDS011;858;53.190;8.596;2023-06-10T14:44:05;4.97;;;3.87;;
1721;SDS011;858;53.190;8.596;2023-06-10T14:46:32;7.93;;;4.20;;
1721;SDS011;858;53.190;8.596;2023-06-10T14:48:58;8.13;;;4.90;;
1721;SDS011;858;53.190;8.596;2023-06-10T14:51:28;7.93;;;5.67;;
1721;SDS011;858;53.190;8.596;2023-06-10T14:53:54;5.93;;;4.70;;
1721;SDS011;858;53.190;8.596;2023-06-10T14:56:21;10.23;;;5.30;;
1721;SDS011;858;53.190;8.596;2023-06-10T14:58:47;5.70;;;4.83;;
1721;SDS011;858;53.190;8.596;2023-06-10T15:01:15;7.50;;;5.30;;
1721;SDS011;858;53.190;8.596;2023-06-10T15:03:41;6.80;;;5.07;;
1721;SDS011;858;53.190;8.596;2023-06-10T15:06:07;7.43;;;6.07;;
1721;SDS011;858;53.190;8.596;2023-06-10T15:08:35;6.23;;;5.63;;
1721;SDS011;858;53.190;8.596;2023-06-10T15:11:02;5.20;;;4.70;;
1721;SDS011;858;53.190;8.596;2023-06-10T15:13:28;7.20;;;6.13;;
1721;SDS011;858;53.190;8.596;2023-06-10T15:15:55;6.17;;;5.13;;
1721;SDS011;858;53.190;8.596;2023-06-10T15:18:22;10.43;;;5.10;;
1721;SDS011;858;53.190;8.596;2023-06-10T15:20:49;10.77;;;5.60;;
1721;SDS011;858;53.190;8.596;2023-06-10T15:23:15;5.73;;;5.23;;
1721;SDS011;858;53.190;8.596;2023-06-10T15:25:42;8.60;;;5.87;;